createdAt,value
2018-02-13T00:00:24.367Z,7.22
2018-02-13T00:01:26.817Z,6.55
2018-02-13T00:02:37.067Z,6.30
2018-02-13T00:03:39.755Z,6.35
2018-02-13T00:04:42.243Z,6.87
2018-02-13T00:05:44.771Z,6.28
2018-02-13T00:06:47.259Z,7.37
2018-02-13T00:07:49.727Z,6.03
2018-02-13T00:08:52.204Z,5.95
2018-02-13T00:09:54.716Z,6.80
2018-02-13T00:10:57.165Z,6.30
2018-02-13T00:11:59.598Z,7.20
2018-02-13T00:13:02.064Z,6.25
2018-02-13T00:14:04.518Z,6.87
2018-02-13T00:15:07.410Z,7.32
2018-02-13T00:16:09.870Z,6.60
2018-02-13T00:17:12.358Z,6.45
2018-02-13T00:18:14.884Z,6.45
2018-02-13T00:19:17.372Z,6.75
2018-02-13T00:20:19.870Z,7.35
2018-02-13T00:21:23.099Z,5.95
2018-02-13T00:22:25.632Z,5.90
2018-02-13T00:23:28.202Z,6.57
2018-02-13T00:24:30.753Z,6.07
2018-02-13T00:25:33.194Z,6.25
2018-02-13T00:26:35.729Z,6.40
2018-02-13T00:27:38.274Z,6.05
2018-02-13T00:28:40.732Z,6.75
2018-02-13T00:29:43.256Z,6.03
2018-02-13T00:30:45.795Z,6.90
2018-02-13T00:31:48.274Z,8.48
2018-02-13T00:32:50.719Z,6.20
2018-02-13T00:33:53.193Z,6.60
2018-02-13T00:34:55.688Z,6.72
2018-02-13T00:35:58.157Z,5.82
2018-02-13T00:37:00.671Z,6.15
2018-02-13T00:38:03.242Z,6.03
2018-02-13T00:39:05.751Z,6.20
2018-02-13T00:40:08.329Z,5.87
2018-02-13T00:41:10.843Z,6.57
2018-02-13T00:42:13.360Z,5.47
2018-02-13T00:43:15.859Z,5.60
2018-02-13T00:44:18.356Z,5.95
2018-02-13T00:45:20.847Z,5.60
2018-02-13T00:46:23.345Z,6.45
2018-02-13T00:47:25.820Z,5.60
2018-02-13T00:48:28.342Z,6.22
2018-02-13T00:49:30.815Z,6.37
2018-02-13T00:50:33.341Z,6.00
2018-02-13T00:51:35.885Z,6.20
2018-02-13T00:52:38.475Z,5.82
2018-02-13T00:53:41.007Z,6.60
2018-02-13T00:54:43.476Z,6.85
2018-02-13T00:55:45.959Z,5.90
2018-02-13T00:56:48.441Z,5.68
2018-02-13T00:57:50.907Z,5.55
2018-02-13T00:58:53.459Z,6.35
2018-02-13T00:59:55.898Z,6.10
2018-02-13T01:00:58.404Z,7.20
2018-02-13T01:02:00.936Z,6.28
2018-02-13T01:03:03.555Z,6.12
2018-02-13T01:04:06.051Z,6.10
2018-02-13T01:05:08.659Z,7.20
2018-02-13T01:06:11.144Z,5.50
2018-02-13T01:07:13.673Z,7.28
2018-02-13T01:08:16.113Z,6.35
2018-02-13T01:09:18.675Z,6.40
2018-02-13T01:10:21.111Z,5.75
2018-02-13T01:11:23.661Z,7.00
2018-02-13T01:12:26.343Z,6.25
2018-02-13T01:13:28.873Z,6.25
2018-02-13T01:14:31.370Z,5.87
2018-02-13T01:15:33.839Z,6.62
2018-02-13T01:16:36.316Z,6.68
2018-02-13T01:17:38.850Z,6.62
2018-02-13T01:18:41.321Z,7.50
2018-02-13T01:19:43.784Z,6.25
2018-02-13T01:20:46.285Z,5.90
2018-02-13T01:21:48.761Z,6.10
2018-02-13T01:22:51.212Z,6.57
2018-02-13T01:23:53.681Z,6.00
2018-02-13T01:24:56.160Z,6.80
2018-02-13T01:25:58.724Z,7.07
2018-02-13T01:27:01.198Z,6.57
2018-02-13T01:28:03.634Z,5.50
2018-02-13T01:29:06.109Z,5.90
2018-02-13T01:30:08.618Z,6.65
2018-02-13T01:31:11.144Z,6.60
2018-02-13T01:32:13.633Z,6.60
2018-02-13T01:33:16.150Z,6.62
2018-02-13T01:34:18.634Z,7.85
2018-02-13T01:35:21.126Z,5.95
2018-02-13T01:36:23.601Z,7.00
2018-02-13T01:37:26.069Z,7.35
2018-02-13T01:38:28.575Z,6.43
2018-02-13T01:39:31.009Z,6.55
2018-02-13T01:40:33.515Z,6.30
2018-02-13T01:41:35.978Z,6.50
2018-02-13T01:42:38.489Z,6.90
2018-02-13T01:43:40.951Z,5.82
2018-02-13T01:44:43.439Z,7.00
2018-02-13T01:45:45.929Z,6.53
2018-02-13T01:46:48.388Z,6.55
2018-02-13T01:47:50.917Z,7.43
2018-02-13T01:48:53.368Z,5.80
2018-02-13T01:49:55.845Z,6.07
2018-02-13T01:50:58.401Z,6.72
2018-02-13T01:52:00.929Z,5.93
2018-02-13T01:53:03.461Z,6.65
2018-02-13T01:54:05.912Z,6.22
2018-02-13T01:55:08.520Z,6.18
2018-02-13T01:56:11.054Z,7.95
2018-02-13T01:57:13.511Z,5.65
2018-02-13T01:58:16.048Z,6.35
2018-02-13T01:59:18.540Z,6.07
2018-02-13T02:00:20.997Z,6.05
2018-02-13T02:01:23.579Z,5.68
2018-02-13T02:02:26.066Z,5.95
2018-02-13T02:03:28.547Z,6.70
2018-02-13T02:04:31.127Z,7.12
2018-02-13T02:05:33.637Z,6.60
2018-02-13T02:06:36.110Z,6.37
2018-02-13T02:07:38.735Z,6.65
2018-02-13T02:08:41.289Z,6.03
2018-02-13T02:09:43.749Z,6.60
2018-02-13T02:10:46.238Z,6.37
2018-02-13T02:11:48.727Z,6.45
2018-02-13T02:12:51.173Z,7.93
2018-02-13T02:13:53.657Z,6.15
2018-02-13T02:14:56.127Z,6.15
2018-02-13T02:15:58.668Z,6.35
2018-02-13T02:17:01.153Z,5.93
2018-02-13T02:18:03.677Z,6.55
2018-02-13T02:19:06.175Z,6.28
2018-02-13T02:20:08.827Z,6.35
2018-02-13T02:21:11.344Z,6.30
2018-02-13T02:22:13.891Z,6.37
2018-02-13T02:23:16.362Z,6.78
2018-02-13T02:24:19.018Z,6.65
2018-02-13T02:25:21.495Z,7.32
2018-02-13T02:26:23.963Z,6.62
2018-02-13T02:27:26.425Z,6.53
2018-02-13T02:28:28.948Z,7.12
2018-02-13T02:29:31.535Z,6.10
2018-02-13T02:30:34.005Z,6.95
2018-02-13T02:31:36.471Z,6.50
2018-02-13T02:32:40.140Z,8.15
2018-02-13T02:33:43.516Z,7.35
2018-02-13T02:34:46.002Z,7.85
2018-02-13T02:35:48.476Z,7.28
2018-02-13T02:36:50.994Z,6.95
2018-02-13T02:37:53.424Z,6.75
2018-02-13T02:38:56.029Z,6.60
2018-02-13T02:39:58.553Z,6.95
2018-02-13T02:41:01.040Z,6.43
2018-02-13T02:42:03.524Z,7.00
2018-02-13T02:43:06.073Z,7.10
2018-02-13T02:44:08.534Z,7.45
2018-02-13T02:45:11.082Z,7.40
2018-02-13T02:46:13.532Z,6.35
2018-02-13T02:47:19.023Z,7.15
2018-02-13T02:48:21.617Z,6.40
2018-02-13T02:49:24.080Z,6.28
2018-02-13T02:50:26.627Z,6.15
2018-02-13T02:51:29.104Z,6.95
2018-02-13T02:52:31.597Z,6.20
2018-02-13T02:53:34.062Z,6.40
2018-02-13T02:54:36.657Z,6.55
2018-02-13T02:55:39.117Z,6.30
2018-02-13T02:56:41.574Z,6.72
2018-02-13T02:57:44.238Z,6.25
2018-02-13T02:58:47.376Z,6.65
2018-02-13T02:59:49.818Z,5.90
2018-02-13T03:00:52.381Z,6.75
2018-02-13T03:01:54.892Z,7.55
2018-02-13T03:02:57.930Z,6.70
2018-02-13T03:04:00.422Z,5.78
2018-02-13T03:05:02.880Z,6.50
2018-02-13T03:06:05.455Z,6.18
2018-02-13T03:07:07.959Z,6.32
2018-02-13T03:08:10.507Z,5.45
2018-02-13T03:09:12.991Z,7.32
2018-02-13T03:10:15.496Z,6.10
2018-02-13T03:11:18.000Z,6.05
2018-02-13T03:12:20.643Z,6.15
2018-02-13T03:13:23.114Z,5.32
2018-02-13T03:14:25.624Z,5.60
2018-02-13T03:15:28.162Z,6.95
2018-02-13T03:16:30.735Z,6.25
2018-02-13T03:17:33.200Z,6.05
2018-02-13T03:18:35.834Z,5.65
2018-02-13T03:19:38.308Z,5.28
2018-02-13T03:20:40.867Z,6.05
2018-02-13T03:21:43.371Z,5.65
2018-02-13T03:22:45.828Z,5.68
2018-02-13T03:23:48.361Z,5.30
2018-02-13T03:24:50.958Z,5.62
2018-02-13T03:25:53.411Z,5.45
2018-02-13T03:26:56.120Z,6.07
2018-02-13T03:27:58.598Z,5.18
2018-02-13T03:29:01.158Z,5.75
2018-02-13T03:30:03.611Z,5.72
2018-02-13T03:31:06.168Z,5.55
2018-02-13T03:32:08.803Z,5.80
2018-02-13T03:33:11.295Z,4.97
2018-02-13T03:34:13.740Z,6.30
2018-02-13T03:35:16.264Z,5.50
2018-02-13T03:36:18.763Z,5.22
2018-02-13T03:37:21.335Z,5.95
2018-02-13T03:38:23.832Z,5.40
2018-02-13T03:39:26.287Z,6.10
2018-02-13T03:40:28.809Z,5.62
2018-02-13T03:41:31.307Z,5.45
2018-02-13T03:42:33.789Z,6.47
2018-02-13T03:43:36.261Z,5.90
2018-02-13T03:44:39.291Z,6.43
2018-02-13T03:45:41.796Z,6.35
2018-02-13T03:46:44.310Z,6.68
2018-02-13T03:47:46.782Z,5.20
2018-02-13T03:48:49.236Z,5.62
2018-02-13T03:49:52.509Z,5.30
2018-02-13T03:50:55.161Z,5.47
2018-02-13T03:51:57.648Z,6.10
2018-02-13T03:53:00.159Z,5.50
2018-02-13T03:54:02.663Z,5.55
2018-02-13T03:55:05.142Z,6.25
2018-02-13T03:56:07.659Z,6.35
2018-02-13T03:57:10.160Z,5.78
2018-02-13T03:58:12.672Z,6.37
2018-02-13T03:59:15.282Z,6.28
2018-02-13T04:00:17.769Z,5.85
2018-02-13T04:01:20.266Z,5.82
2018-02-13T04:02:22.769Z,5.22
2018-02-13T04:03:25.263Z,5.93
2018-02-13T04:04:27.718Z,5.72
2018-02-13T04:05:30.304Z,5.82
2018-02-13T04:06:32.780Z,5.75
2018-02-13T04:07:35.285Z,5.75
2018-02-13T04:08:37.811Z,5.40
2018-02-13T04:09:40.274Z,6.15
2018-02-13T04:10:42.735Z,4.93
2018-02-13T04:11:46.148Z,5.75
2018-02-13T04:12:48.625Z,5.30
2018-02-13T04:13:51.808Z,5.40
2018-02-13T04:14:54.248Z,5.10
2018-02-13T04:15:56.805Z,4.90
2018-02-13T04:16:59.345Z,5.18
2018-02-13T04:18:01.868Z,5.50
2018-02-13T04:19:04.379Z,5.65
2018-02-13T04:20:06.850Z,5.32
2018-02-13T04:21:09.340Z,5.45
2018-02-13T04:22:11.904Z,5.28
2018-02-13T04:23:14.468Z,5.10
2018-02-13T04:24:17.009Z,5.18
2018-02-13T04:25:20.527Z,5.68
2018-02-13T04:26:23.117Z,5.30
2018-02-13T04:27:25.591Z,5.50
2018-02-13T04:28:28.097Z,5.43
2018-02-13T04:29:30.716Z,5.03
2018-02-13T04:30:33.232Z,5.47
2018-02-13T04:31:35.837Z,4.75
2018-02-13T04:32:38.330Z,6.22
2018-02-13T04:33:40.814Z,4.93
2018-02-13T04:34:43.388Z,4.97
2018-02-13T04:35:45.952Z,4.68
2018-02-13T04:36:48.522Z,5.47
2018-02-13T04:37:51.068Z,4.75
2018-02-13T04:38:53.541Z,4.78
2018-02-13T04:39:56.068Z,5.50
2018-02-13T04:40:58.547Z,5.40
2018-02-13T04:42:00.999Z,4.50
2018-02-13T04:43:03.444Z,4.47
2018-02-13T04:44:05.940Z,5.03
2018-02-13T04:45:08.456Z,7.53
2018-02-13T04:46:11.006Z,5.20
2018-02-13T04:47:13.476Z,6.12
2018-02-13T04:48:16.039Z,4.85
2018-02-13T04:49:18.568Z,5.55
2018-02-13T04:50:21.080Z,4.55
2018-02-13T04:51:23.612Z,4.75
2018-02-13T04:52:26.094Z,5.75
2018-02-13T04:53:28.606Z,4.87
2018-02-13T04:54:31.124Z,4.87
2018-02-13T04:55:33.687Z,4.97
2018-02-13T04:56:36.285Z,6.20
2018-02-13T04:57:38.778Z,6.07
2018-02-13T04:58:41.299Z,5.15
2018-02-13T04:59:43.758Z,5.68
2018-02-13T05:00:46.315Z,4.93
2018-02-13T05:01:48.848Z,4.90
2018-02-13T05:02:51.320Z,4.32
2018-02-13T05:03:53.823Z,5.20
2018-02-13T05:04:56.334Z,5.22
2018-02-13T05:05:58.816Z,4.35
2018-02-13T05:07:01.307Z,4.93
2018-02-13T05:08:03.794Z,5.53
2018-02-13T05:09:06.328Z,4.72
2018-02-13T05:10:08.896Z,4.85
2018-02-13T05:11:11.369Z,4.90
2018-02-13T05:12:13.948Z,4.35
2018-02-13T05:13:16.449Z,4.47
2018-02-13T05:14:18.944Z,5.30
2018-02-13T05:15:21.392Z,4.80
2018-02-13T05:16:23.944Z,5.40
2018-02-13T05:17:26.452Z,4.95
2018-02-13T05:18:28.897Z,5.15
2018-02-13T05:19:31.348Z,4.75
2018-02-13T05:20:33.917Z,5.50
2018-02-13T05:21:36.451Z,4.93
2018-02-13T05:22:39.028Z,4.97
2018-02-13T05:23:41.476Z,5.93
2018-02-13T05:24:43.913Z,4.72
2018-02-13T05:25:46.348Z,4.25
2018-02-13T05:26:48.877Z,5.05
2018-02-13T05:27:51.377Z,4.50
2018-02-13T05:28:53.871Z,5.20
2018-02-13T05:29:56.326Z,5.72
2018-02-13T05:30:58.816Z,5.47
2018-02-13T05:32:01.337Z,4.93
2018-02-13T05:33:03.864Z,5.15
2018-02-13T05:34:06.333Z,4.50
2018-02-13T05:35:08.791Z,4.43
2018-02-13T05:36:11.315Z,4.70
2018-02-13T05:37:13.794Z,5.00
2018-02-13T05:38:16.445Z,4.80
2018-02-13T05:39:18.964Z,4.35
2018-02-13T05:40:21.476Z,4.50
2018-02-13T05:41:23.945Z,5.00
2018-02-13T05:42:26.555Z,4.93
2018-02-13T05:43:29.001Z,5.12
2018-02-13T05:44:31.445Z,5.32
2018-02-13T05:45:33.993Z,4.82
2018-02-13T05:46:36.428Z,4.78
2018-02-13T05:47:39.044Z,5.20
2018-02-13T05:48:41.548Z,8.45
2018-02-13T05:49:44.043Z,5.32
2018-02-13T05:50:46.512Z,4.85
2018-02-13T05:51:48.954Z,5.37
2018-02-13T05:52:51.487Z,5.30
2018-02-13T05:53:54.048Z,4.78
2018-02-13T05:54:56.524Z,4.50
2018-02-13T05:55:59.052Z,4.68
2018-02-13T05:57:01.535Z,4.28
2018-02-13T05:58:04.064Z,5.25
2018-02-13T05:59:06.651Z,4.85
2018-02-13T06:00:09.120Z,6.00
2018-02-13T06:01:11.580Z,5.00
2018-02-13T06:02:14.119Z,5.37
2018-02-13T06:03:16.588Z,5.03
2018-02-13T06:04:19.071Z,5.45
2018-02-13T06:05:21.526Z,6.07
2018-02-13T06:06:23.994Z,4.80
2018-02-13T06:07:26.435Z,5.53
2018-02-13T06:08:28.900Z,5.53
2018-02-13T06:09:31.368Z,5.35
2018-02-13T06:10:34.849Z,6.05
2018-02-13T06:11:37.307Z,5.15
2018-02-13T06:12:39.814Z,6.05
2018-02-13T06:13:42.341Z,5.05
2018-02-13T06:14:44.863Z,5.80
2018-02-13T06:15:47.352Z,5.57
2018-02-13T06:16:49.864Z,7.82
2018-02-13T06:17:52.329Z,5.20
2018-02-13T06:18:54.879Z,5.47
2018-02-13T06:19:57.421Z,5.53
2018-02-13T06:21:00.125Z,5.53
2018-02-13T06:22:02.644Z,5.87
2018-02-13T06:23:05.196Z,6.60
2018-02-13T06:24:07.679Z,5.72
2018-02-13T06:25:10.143Z,6.57
2018-02-13T06:26:12.674Z,5.47
2018-02-13T06:27:15.172Z,5.60
2018-02-13T06:28:17.988Z,5.97
2018-02-13T06:29:20.621Z,5.43
2018-02-13T06:30:23.286Z,5.87
2018-02-13T06:31:25.845Z,5.45
2018-02-13T06:32:28.293Z,5.60
2018-02-13T06:33:30.757Z,5.72
2018-02-13T06:34:33.303Z,6.82
2018-02-13T06:35:35.812Z,5.87
2018-02-13T06:36:38.302Z,6.82
2018-02-13T06:37:40.771Z,5.25
2018-02-13T06:38:43.246Z,6.68
2018-02-13T06:39:45.762Z,7.15
2018-02-13T06:40:48.291Z,5.18
2018-02-13T06:41:50.794Z,6.28
2018-02-13T06:42:53.319Z,7.10
2018-02-13T06:43:55.844Z,6.43
2018-02-13T06:44:58.386Z,7.60
2018-02-13T06:46:00.867Z,8.13
2018-02-13T06:47:03.415Z,7.72
2018-02-13T06:48:05.882Z,7.05
2018-02-13T06:49:08.401Z,7.82
2018-02-13T06:50:12.695Z,7.10
2018-02-13T06:51:15.233Z,5.93
2018-02-13T06:52:18.710Z,6.75
2018-02-13T06:53:21.189Z,6.85
2018-02-13T06:54:23.889Z,6.60
2018-02-13T06:55:26.380Z,7.10
2018-02-13T06:56:28.878Z,6.97
2018-02-13T06:57:31.535Z,6.30
2018-02-13T06:58:34.129Z,7.22
2018-02-13T06:59:36.680Z,6.62
2018-02-13T07:00:39.195Z,7.60
2018-02-13T07:01:41.675Z,6.65
2018-02-13T07:02:44.123Z,6.50
2018-02-13T07:03:46.660Z,6.72
2018-02-13T07:04:49.159Z,7.55
2018-02-13T07:05:51.661Z,6.80
2018-02-13T07:06:54.171Z,6.55
2018-02-13T07:07:56.757Z,7.40
2018-02-13T07:08:59.327Z,7.78
2018-02-13T07:10:02.779Z,7.32
2018-02-13T07:11:05.402Z,6.70
2018-02-13T07:12:07.897Z,6.30
2018-02-13T07:13:10.402Z,7.40
2018-02-13T07:14:12.918Z,7.05
2018-02-13T07:15:15.382Z,6.62
2018-02-13T07:16:18.749Z,6.03
2018-02-13T07:17:21.366Z,7.43
2018-02-13T07:18:23.812Z,7.37
2018-02-13T07:19:26.293Z,13.82
2018-02-13T07:20:28.872Z,8.07
2018-02-13T07:21:31.423Z,7.32
2018-02-13T07:22:34.011Z,6.70
2018-02-13T07:23:37.394Z,8.80
2018-02-13T07:24:40.023Z,7.45
2018-02-13T07:25:42.498Z,6.18
2018-02-13T07:26:45.056Z,7.93
2018-02-13T07:27:47.516Z,7.40
2018-02-13T07:28:50.009Z,7.50
2018-02-13T07:29:53.462Z,7.90
2018-02-13T07:30:56.097Z,8.10
2018-02-13T07:31:58.586Z,8.95
2018-02-13T07:33:02.569Z,8.82
2018-02-13T07:34:05.026Z,8.18
2018-02-13T07:35:08.265Z,6.65
2018-02-13T07:36:10.876Z,7.68
2018-02-13T07:37:13.438Z,7.35
2018-02-13T07:38:15.932Z,7.93
2018-02-13T07:39:18.396Z,7.70
2018-02-13T07:40:20.926Z,9.07
2018-02-13T07:41:23.624Z,8.07
2018-02-13T07:42:26.298Z,8.05
2018-02-13T07:43:28.853Z,8.35
2018-02-13T07:44:31.619Z,7.82
2018-02-13T07:45:34.136Z,10.70
2018-02-13T07:46:36.611Z,8.63
2018-02-13T07:47:39.954Z,8.80
2018-02-13T07:48:42.655Z,9.73
2018-02-13T07:49:45.184Z,8.38
2018-02-13T07:50:48.291Z,7.70
2018-02-13T07:51:50.752Z,7.25
2018-02-13T07:52:53.225Z,8.70
2018-02-13T07:53:55.690Z,8.10
2018-02-13T07:54:58.407Z,9.00
2018-02-13T07:56:00.923Z,8.93
2018-02-13T07:57:03.386Z,8.50
2018-02-13T07:58:05.895Z,9.35
2018-02-13T07:59:08.420Z,9.65
2018-02-13T08:00:10.890Z,8.82
2018-02-13T08:01:13.453Z,8.15
2018-02-13T08:02:16.057Z,8.95
2018-02-13T08:03:18.556Z,8.75
2018-02-13T08:04:21.053Z,8.48
2018-02-13T08:05:24.506Z,9.20
2018-02-13T08:06:26.958Z,8.77
2018-02-13T08:07:29.422Z,9.70
2018-02-13T08:08:31.947Z,9.55
2018-02-13T08:09:34.514Z,8.15
2018-02-13T08:10:37.062Z,10.70
2018-02-13T08:11:39.702Z,9.50
2018-02-13T08:12:42.206Z,10.27
2018-02-13T08:13:45.608Z,9.25
2018-02-13T08:14:48.085Z,9.23
2018-02-13T08:15:50.720Z,10.73
2018-02-13T08:16:53.211Z,10.02
2018-02-13T08:17:55.951Z,10.75
2018-02-13T08:18:58.407Z,9.07
2018-02-13T08:20:00.880Z,9.60
2018-02-13T08:21:03.547Z,9.70
2018-02-13T08:22:06.100Z,9.23
2018-02-13T08:23:08.738Z,9.43
2018-02-13T08:24:11.275Z,9.18
2018-02-13T08:25:13.769Z,9.15
2018-02-13T08:26:16.356Z,10.75
2018-02-13T08:27:18.844Z,9.60
2018-02-13T08:28:21.384Z,8.77
2018-02-13T08:29:24.260Z,10.10
2018-02-13T08:30:26.764Z,9.18
2018-02-13T08:31:29.226Z,10.15
2018-02-13T08:32:31.877Z,9.95
2018-02-13T08:33:34.443Z,10.35
2018-02-13T08:34:37.014Z,10.13
2018-02-13T08:35:39.482Z,10.68
2018-02-13T08:36:42.013Z,9.32
2018-02-13T08:37:44.612Z,9.35
2018-02-13T08:38:47.093Z,10.60
2018-02-13T08:39:49.685Z,9.90
2018-02-13T08:40:52.425Z,10.73
2018-02-13T08:41:54.887Z,10.35
2018-02-13T08:42:57.725Z,11.82
2018-02-13T08:44:00.194Z,11.02
2018-02-13T08:45:02.937Z,10.45
2018-02-13T08:46:05.451Z,10.65
2018-02-13T08:47:07.919Z,9.25
2018-02-13T08:48:10.375Z,9.65
2018-02-13T08:49:12.858Z,10.15
2018-02-13T08:50:15.382Z,10.00
2018-02-13T08:51:17.921Z,12.10
2018-02-13T08:52:20.451Z,10.45
2018-02-13T08:53:22.934Z,9.73
2018-02-13T08:54:25.540Z,10.90
2018-02-13T08:55:28.307Z,10.25
2018-02-13T08:56:30.777Z,9.93
2018-02-13T08:57:33.622Z,10.35
2018-02-13T08:58:36.465Z,10.85
2018-02-13T08:59:39.950Z,8.98
2018-02-13T09:00:42.529Z,12.65
2018-02-13T09:01:44.985Z,11.40
2018-02-13T09:02:47.451Z,11.60
2018-02-13T09:03:49.983Z,10.63
2018-02-13T09:04:52.446Z,10.85
2018-02-13T09:05:55.049Z,10.20
2018-02-13T09:06:57.553Z,11.55
2018-02-13T09:08:00.078Z,10.48
2018-02-13T09:09:02.682Z,10.65
2018-02-13T09:10:05.152Z,10.52
2018-02-13T09:11:07.729Z,9.55
2018-02-13T09:12:10.325Z,10.65
2018-02-13T09:13:12.768Z,11.18
2018-02-13T09:14:15.265Z,9.82
2018-02-13T09:15:17.756Z,9.45
2018-02-13T09:16:20.516Z,9.75
2018-02-13T09:17:23.030Z,13.20
2018-02-13T09:18:25.521Z,11.20
2018-02-13T09:19:28.016Z,8.27
2018-02-13T09:20:30.603Z,11.40
2018-02-13T09:21:33.281Z,11.80
2018-02-13T09:22:35.775Z,11.30
2018-02-13T09:23:38.901Z,11.15
2018-02-13T09:24:41.393Z,12.52
2018-02-13T09:25:43.869Z,11.88
2018-02-13T09:26:46.337Z,12.65
2018-02-13T09:27:48.808Z,11.40
2018-02-13T09:28:51.271Z,11.82
2018-02-13T09:29:53.717Z,11.40
2018-02-13T09:30:56.224Z,11.63
2018-02-13T09:31:58.707Z,11.63
2018-02-13T09:33:01.451Z,10.85
2018-02-13T09:34:03.967Z,11.10
2018-02-13T09:35:06.520Z,10.45
2018-02-13T09:36:09.031Z,10.55
2018-02-13T09:37:11.527Z,10.75
2018-02-13T09:38:13.989Z,11.35
2018-02-13T09:39:16.440Z,13.57
2018-02-13T09:40:18.935Z,11.15
2018-02-13T09:41:21.536Z,10.73
2018-02-13T09:42:24.112Z,10.88
2018-02-13T09:43:26.656Z,11.02
2018-02-13T09:44:29.110Z,10.90
2018-02-13T09:45:31.709Z,11.85
2018-02-13T09:46:34.176Z,12.15
2018-02-13T09:47:36.709Z,11.05
2018-02-13T09:48:39.180Z,11.10
2018-02-13T09:49:41.661Z,12.35
2018-02-13T09:50:44.111Z,12.98
2018-02-13T09:51:46.709Z,11.55
2018-02-13T09:52:49.212Z,10.90
2018-02-13T09:53:52.065Z,11.82
2018-02-13T09:54:54.684Z,11.00
2018-02-13T09:55:57.240Z,13.30
2018-02-13T09:57:00.258Z,12.10
2018-02-13T09:58:02.794Z,11.60
2018-02-13T09:59:05.248Z,11.57
2018-02-13T10:00:07.713Z,10.48
2018-02-13T10:01:10.941Z,10.30
2018-02-13T10:02:13.468Z,10.85
2018-02-13T10:03:16.043Z,11.32
2018-02-13T10:04:18.572Z,10.60
2018-02-13T10:05:21.069Z,10.90
2018-02-13T10:06:23.527Z,11.80
2018-02-13T10:07:26.021Z,11.02
2018-02-13T10:08:30.945Z,11.95
2018-02-13T10:09:33.512Z,10.32
2018-02-13T10:10:35.958Z,10.40
2018-02-13T10:11:38.430Z,11.90
2018-02-13T10:12:41.658Z,10.95
2018-02-13T10:13:44.237Z,9.95
2018-02-13T10:14:46.710Z,11.25
2018-02-13T10:15:49.759Z,10.18
2018-02-13T10:16:52.327Z,11.25
2018-02-13T10:17:54.794Z,10.23
2018-02-13T10:18:57.288Z,10.15
2018-02-13T10:19:59.780Z,10.45
2018-02-13T10:21:02.305Z,10.50
2018-02-13T10:22:04.842Z,9.20
2018-02-13T10:23:07.332Z,10.25
2018-02-13T10:24:09.815Z,10.10
2018-02-13T10:25:12.323Z,10.40
2018-02-13T10:26:14.779Z,9.48
2018-02-13T10:27:17.217Z,9.48
2018-02-13T10:28:19.746Z,10.13
2018-02-13T10:29:23.001Z,10.38
2018-02-13T10:30:25.741Z,8.88
2018-02-13T10:31:28.239Z,10.90
2018-02-13T10:32:30.736Z,9.40
2018-02-13T10:33:33.210Z,10.30
2018-02-13T10:34:35.699Z,8.73
2018-02-13T10:35:38.149Z,10.55
2018-02-13T10:36:40.620Z,10.77
2018-02-13T10:37:45.927Z,9.00
2018-02-13T10:38:48.377Z,8.50
2018-02-13T10:39:51.271Z,8.77
2018-02-13T10:40:53.841Z,8.82
2018-02-13T10:41:56.318Z,9.15
2018-02-13T10:42:58.763Z,8.77
2018-02-13T10:44:02.299Z,9.07
2018-02-13T10:45:05.694Z,8.95
2018-02-13T10:46:08.251Z,7.45
2018-02-13T10:47:10.703Z,8.63
2018-02-13T10:48:13.168Z,8.55
2018-02-13T10:49:15.636Z,7.75
2018-02-13T10:50:18.189Z,8.80
2018-02-13T10:51:20.631Z,7.00
2018-02-13T10:52:23.133Z,10.15
2018-02-13T10:53:26.428Z,8.52
2018-02-13T10:54:29.186Z,8.80
2018-02-13T10:55:31.801Z,8.68
2018-02-13T10:56:34.271Z,8.63
2018-02-13T10:57:36.726Z,7.87
2018-02-13T10:58:39.203Z,7.70
2018-02-13T10:59:41.710Z,7.93
2018-02-13T11:00:49.833Z,8.10
2018-02-13T11:01:52.352Z,7.68
2018-02-13T11:02:54.825Z,7.87
2018-02-13T11:03:57.268Z,8.18
2018-02-13T11:04:59.823Z,7.15
2018-02-13T11:06:02.315Z,8.57
2018-02-13T11:07:04.816Z,7.15
2018-02-13T11:08:07.267Z,6.80
2018-02-13T11:09:09.894Z,7.22
2018-02-13T11:10:13.314Z,7.40
2018-02-13T11:11:15.783Z,7.75
2018-02-13T11:12:18.246Z,6.97
2018-02-13T11:13:20.802Z,6.40
2018-02-13T11:14:23.288Z,7.37
2018-02-13T11:15:25.771Z,7.00
2018-02-13T11:16:28.235Z,6.75
2018-02-13T11:17:30.703Z,6.47
2018-02-13T11:18:34.382Z,6.20
2018-02-13T11:19:36.836Z,6.15
2018-02-13T11:20:39.710Z,6.15
2018-02-13T11:21:42.185Z,5.60
2018-02-13T11:22:44.645Z,5.82
2018-02-13T11:23:47.096Z,6.07
2018-02-13T11:24:49.551Z,6.40
2018-02-13T11:25:51.986Z,3.70
2018-02-13T11:26:54.479Z,5.25
2018-02-13T11:27:57.085Z,4.10
2018-02-13T11:28:59.620Z,4.00
2018-02-13T11:30:02.081Z,4.90
2018-02-13T11:31:04.542Z,4.97
2018-02-13T11:32:07.405Z,4.47
2018-02-13T11:33:09.899Z,4.90
2018-02-13T11:34:12.337Z,4.50
2018-02-13T11:35:14.937Z,4.28
2018-02-13T11:36:17.482Z,5.72
2018-02-13T11:37:19.987Z,4.90
2018-02-13T11:38:22.496Z,5.05
2018-02-13T11:39:24.975Z,4.43
2018-02-13T11:40:27.470Z,8.95
2018-02-13T11:41:29.939Z,3.58
2018-02-13T11:42:32.401Z,4.18
2018-02-13T11:43:34.867Z,3.70
2018-02-13T11:44:37.400Z,4.35
2018-02-13T11:45:39.909Z,4.00
2018-02-13T11:46:42.731Z,3.87
2018-02-13T11:47:45.250Z,4.47
2018-02-13T11:48:48.441Z,4.40
2018-02-13T11:49:50.899Z,4.62
2018-02-13T11:50:53.469Z,3.87
2018-02-13T11:51:56.022Z,4.00
2018-02-13T11:52:59.373Z,4.32
2018-02-13T11:54:01.838Z,3.72
2018-02-13T11:55:04.707Z,4.50
2018-02-13T11:56:07.197Z,3.45
2018-02-13T11:57:09.705Z,4.20
2018-02-13T11:58:12.244Z,3.30
2018-02-13T11:59:14.692Z,3.50
2018-02-13T12:00:17.140Z,3.83
2018-02-13T12:01:19.678Z,4.10
2018-02-13T12:02:22.151Z,6.28
2018-02-13T12:03:24.644Z,3.72
2018-02-13T12:04:27.141Z,4.22
2018-02-13T12:05:30.145Z,3.20
2018-02-13T12:06:32.704Z,4.30
2018-02-13T12:07:35.270Z,4.20
2018-02-13T12:08:37.776Z,4.18
2018-02-13T12:09:40.245Z,2.85
2018-02-13T12:10:42.735Z,3.22
2018-02-13T12:11:45.202Z,3.30
2018-02-13T12:12:47.642Z,3.90
2018-02-13T12:13:50.164Z,3.42
2018-02-13T12:14:52.739Z,3.05
2018-02-13T12:15:55.179Z,3.22
2018-02-13T12:16:58.268Z,2.60
2018-02-13T12:18:01.627Z,3.20
2018-02-13T12:19:04.178Z,2.95
2018-02-13T12:20:06.735Z,3.78
2018-02-13T12:21:09.384Z,2.60
2018-02-13T12:22:12.041Z,3.45
2018-02-13T12:23:14.508Z,3.22
2018-02-13T12:24:17.929Z,3.10
2018-02-13T12:25:32.200Z,3.42
2018-02-13T12:26:34.654Z,3.42
2018-02-13T12:27:38.995Z,3.75
2018-02-13T12:28:41.467Z,3.15
2018-02-13T12:29:43.922Z,2.53
2018-02-13T12:30:46.381Z,3.05
2018-02-13T12:31:48.900Z,3.10
2018-02-13T12:32:51.349Z,4.00
2018-02-13T12:33:53.853Z,4.15
2018-02-13T12:34:56.355Z,3.33
2018-02-13T12:35:58.824Z,3.00
2018-02-13T12:37:01.281Z,3.35
2018-02-13T12:38:03.726Z,3.20
2018-02-13T12:39:06.853Z,3.37
2018-02-13T12:40:09.324Z,2.67
2018-02-13T12:41:11.998Z,2.45
2018-02-13T12:42:14.508Z,3.65
2018-02-13T12:43:16.942Z,2.90
2018-02-13T12:44:19.431Z,3.20
2018-02-13T12:45:22.852Z,3.10
2018-02-13T12:46:25.364Z,3.33
2018-02-13T12:47:27.848Z,3.10
2018-02-13T12:48:30.305Z,3.70
2018-02-13T12:49:32.858Z,3.58
2018-02-13T12:50:35.349Z,2.70
2018-02-13T12:51:37.795Z,3.35
2018-02-13T12:52:41.190Z,3.40
2018-02-13T12:53:44.262Z,3.08
2018-02-13T12:54:46.730Z,2.92
2018-02-13T12:55:49.274Z,2.95
2018-02-13T12:56:51.727Z,3.85
2018-02-13T12:57:54.321Z,3.30
2018-02-13T12:58:56.824Z,3.20
2018-02-13T12:59:59.294Z,3.22
2018-02-13T13:01:01.803Z,3.40
2018-02-13T13:02:04.292Z,3.80
2018-02-13T13:03:06.854Z,3.33
2018-02-13T13:04:09.972Z,3.28
2018-02-13T13:05:12.485Z,3.25
2018-02-13T13:06:14.984Z,3.58
2018-02-13T13:07:17.456Z,3.00
2018-02-13T13:08:19.899Z,3.62
2018-02-13T13:09:22.380Z,3.62
2018-02-13T13:10:24.844Z,3.20
2018-02-13T13:11:27.381Z,3.72
2018-02-13T13:12:30.018Z,4.03
2018-02-13T13:13:32.576Z,3.50
2018-02-13T13:14:35.083Z,3.00
2018-02-13T13:15:37.627Z,3.05
2018-02-13T13:16:40.156Z,3.58
2018-02-13T13:17:42.608Z,3.20
2018-02-13T13:18:45.073Z,3.30
2018-02-13T13:19:47.564Z,3.08
2018-02-13T13:20:50.041Z,3.30
2018-02-13T13:21:52.497Z,2.92
2018-02-13T13:22:54.952Z,3.60
2018-02-13T13:23:57.456Z,3.55
2018-02-13T13:25:00.016Z,3.03
2018-02-13T13:26:02.490Z,3.40
2018-02-13T13:27:04.971Z,3.30
2018-02-13T13:28:07.414Z,3.35
2018-02-13T13:29:09.853Z,2.85
2018-02-13T13:30:13.478Z,2.92
2018-02-13T13:31:15.989Z,3.03
2018-02-13T13:32:18.465Z,3.00
2018-02-13T13:33:20.916Z,3.37
2018-02-13T13:34:23.447Z,3.30
2018-02-13T13:35:25.985Z,4.28
2018-02-13T13:36:28.497Z,3.67
2018-02-13T13:37:31.660Z,3.75
2018-02-13T13:38:34.104Z,3.22
2018-02-13T13:39:36.670Z,3.53
2018-02-13T13:40:39.308Z,3.70
2018-02-13T13:41:41.807Z,3.87
2018-02-13T13:42:44.326Z,4.50
2018-02-13T13:43:46.824Z,4.40
2018-02-13T13:44:49.288Z,3.70
2018-02-13T13:45:53.076Z,3.10
2018-02-13T13:46:56.074Z,2.95
2018-02-13T13:49:07.551Z,4.22
2018-02-13T13:50:09.993Z,3.90